sensor_id;sensor_type;location;lat;lon;timestamp;pressure;altitude;pressure_sealevel;temperature;humidity
7524;BME280;3803;51.666;7.630;2023-02-28T00:00:20;102462.22;;;0.15;53.06
7524;BME280;3803;51.666;7.630;2023-02-28T00:00:41;102462.22;;;0.15;52.81
7524;BME280;3803;51.666;7.630;2023-02-28T00:01:03;102471.28;;;0.20;52.79
7524;BME280;3803;51.666;7.630;2023-02-28T00:01:24;102461.34;;;0.15;52.60
7524;BME280;3803;51.666;7.630;2023-02-28T00:01:44;102459.94;;;0.18;52.75
7524;BME280;3803;51.666;7.630;2023-02-28T00:02:05;102464.50;;;0.12;52.96
7524;BME280;3803;51.666;7.630;2023-02-28T00:02:25;102468.28;;;0.16;53.06
7524;BME280;3803;51.666;7.630;2023-02-28T00:02:46;102475.06;;;0.24;52.96
7524;BME280;3803;51.666;7.630;2023-02-28T00:03:07;102468.41;;;0.17;52.59
7524;BME280;3803;51.666;7.630;2023-02-28T00:03:27;102457.09;;;0.15;52.56
7524;BME280;3803;51.666;7.630;2023-02-28T00:03:48;102470.22;;;0.18;53.04
7524;BME280;3803;51.666;7.630;2023-02-28T00:04:10;102465.22;;;0.20;52.87
7524;BME280;3803;51.666;7.630;2023-02-28T00:04:31;102467.66;;;0.18;52.71
7524;BME280;3803;51.666;7.630;2023-02-28T00:04:51;102459.53;;;0.05;52.86
7524;BME280;3803;51.666;7.630;2023-02-28T00:05:24;102480.03;;;0.14;52.99
7524;BME280;3803;51.666;7.630;2023-02-28T00:05:44;102464.34;;;0.10;52.64
7524;BME280;3803;51.666;7.630;2023-02-28T00:06:06;102468.88;;;0.13;53.02
7524;BME280;3803;51.666;7.630;2023-02-28T00:06:27;102466.16;;;0.11;53.35
7524;BME280;3803;51.666;7.630;2023-02-28T00:07:50;102474.63;;;-0.07;53.29
7524;BME280;3803;51.666;7.630;2023-02-28T00:08:11;102467.81;;;-0.07;53.46
7524;BME280;3803;51.666;7.630;2023-02-28T00:08:32;102466.47;;;-0.12;53.31
7524;BME280;3803;51.666;7.630;2023-02-28T00:08:52;102468.56;;;-0.08;53.67
7524;BME280;3803;51.666;7.630;2023-02-28T00:09:13;102467.66;;;0.01;53.21
7524;BME280;3803;51.666;7.630;2023-02-28T00:09:33;102458.00;;;-0.02;53.02
7524;BME280;3803;51.666;7.630;2023-02-28T00:09:54;102478.41;;;-0.04;53.28
7524;BME280;3803;51.666;7.630;2023-02-28T00:10:18;102462.81;;;-0.14;53.35
7524;BME280;3803;51.666;7.630;2023-02-28T00:10:43;102464.47;;;-0.23;53.47
7524;BME280;3803;51.666;7.630;2023-02-28T00:11:06;102470.38;;;-0.07;53.47
7524;BME280;3803;51.666;7.630;2023-02-28T00:11:27;102455.72;;;-0.08;53.23
7524;BME280;3803;51.666;7.630;2023-02-28T00:11:47;102459.66;;;-0.20;53.21
7524;BME280;3803;51.666;7.630;2023-02-28T00:12:08;102473.25;;;-0.21;53.04
7524;BME280;3803;51.666;7.630;2023-02-28T00:12:30;102473.25;;;-0.12;53.39
7524;BME280;3803;51.666;7.630;2023-02-28T00:12:51;102451.66;;;-0.14;53.25
7524;BME280;3803;51.666;7.630;2023-02-28T00:13:12;102463.44;;;-0.08;53.07
7524;BME280;3803;51.666;7.630;2023-02-28T00:13:34;102482.16;;;-0.09;53.37
7524;BME280;3803;51.666;7.630;2023-02-28T00:13:55;102475.81;;;-0.21;53.39
7524;BME280;3803;51.666;7.630;2023-02-28T00:14:16;102457.88;;;-0.21;53.44
7524;BME280;3803;51.666;7.630;2023-02-28T00:14:36;102471.00;;;-0.09;53.24
7524;BME280;3803;51.666;7.630;2023-02-28T00:14:57;102474.47;;;-0.09;53.15
7524;BME280;3803;51.666;7.630;2023-02-28T00:15:18;102479.91;;;-0.14;53.37
7524;BME280;3803;51.666;7.630;2023-02-28T00:15:39;102467.34;;;-0.29;53.42
7524;BME280;3803;51.666;7.630;2023-02-28T00:16:01;102459.63;;;-0.38;53.45
7524;BME280;3803;51.666;7.630;2023-02-28T00:16:23;102460.09;;;-0.24;53.28
7524;BME280;3803;51.666;7.630;2023-02-28T00:16:43;102469.19;;;-0.19;53.06
7524;BME280;3803;51.666;7.630;2023-02-28T00:17:04;102469.47;;;-0.16;53.15
7524;BME280;3803;51.666;7.630;2023-02-28T00:17:26;102455.75;;;-0.17;53.40
7524;BME280;3803;51.666;7.630;2023-02-28T00:17:46;102461.63;;;-0.26;53.23
7524;BME280;3803;51.666;7.630;2023-02-28T00:18:07;102466.13;;;-0.33;53.48
7524;BME280;3803;51.666;7.630;2023-02-28T00:18:27;102465.53;;;-0.30;53.56
7524;BME280;3803;51.666;7.630;2023-02-28T00:18:49;102470.06;;;-0.36;53.64
7524;BME280;3803;51.666;7.630;2023-02-28T00:19:10;102457.69;;;-0.40;53.82
7524;BME280;3803;51.666;7.630;2023-02-28T00:19:33;102473.38;;;-0.37;53.78
7524;BME280;3803;51.666;7.630;2023-02-28T00:19:54;102475.03;;;-0.38;54.01
7524;BME280;3803;51.666;7.630;2023-02-28T00:20:35;102471.88;;;-0.26;53.54
7524;BME280;3803;51.666;7.630;2023-02-28T00:20:57;102460.72;;;-0.36;53.66
7524;BME280;3803;51.666;7.630;2023-02-28T00:21:18;102462.66;;;-0.24;53.47
7524;BME280;3803;51.666;7.630;2023-02-28T00:21:39;102468.59;;;-0.17;53.25
7524;BME280;3803;51.666;7.630;2023-02-28T00:22:01;102474.28;;;-0.10;53.24
7524;BME280;3803;51.666;7.630;2023-02-28T00:22:21;102471.88;;;-0.09;52.88
7524;BME280;3803;51.666;7.630;2023-02-28T00:22:44;102480.97;;;-0.04;52.74
7524;BME280;3803;51.666;7.630;2023-02-28T00:23:05;102468.56;;;-0.08;52.71
7524;BME280;3803;51.666;7.630;2023-02-28T00:23:27;102475.50;;;-0.07;53.01
7524;BME280;3803;51.666;7.630;2023-02-28T00:23:48;102457.69;;;-0.14;52.77
7524;BME280;3803;51.666;7.630;2023-02-28T00:24:08;102455.88;;;-0.15;52.69
7524;BME280;3803;51.666;7.630;2023-02-28T00:24:29;102460.44;;;-0.21;52.76
7524;BME280;3803;51.666;7.630;2023-02-28T00:24:50;102463.72;;;-0.22;52.94
7524;BME280;3803;51.666;7.630;2023-02-28T00:25:11;102477.31;;;-0.23;53.04
7524;BME280;3803;51.666;7.630;2023-02-28T00:25:33;102454.22;;;-0.32;53.07
7524;BME280;3803;51.666;7.630;2023-02-28T00:25:55;102472.03;;;-0.16;53.04
7524;BME280;3803;51.666;7.630;2023-02-28T00:26:15;102455.56;;;-0.36;53.14
7524;BME280;3803;51.666;7.630;2023-02-28T00:26:39;102460.25;;;-0.40;53.30
7524;BME280;3803;51.666;7.630;2023-02-28T00:27:00;102464.16;;;-0.44;53.65
7524;BME280;3803;51.666;7.630;2023-02-28T00:27:20;102474.28;;;-0.28;53.29
7524;BME280;3803;51.666;7.630;2023-02-28T00:27:41;102456.59;;;-0.43;53.34
7524;BME280;3803;51.666;7.630;2023-02-28T00:28:02;102469.75;;;-0.31;53.21
7524;BME280;3803;51.666;7.630;2023-02-28T00:28:23;102458.44;;;-0.33;53.24
7524;BME280;3803;51.666;7.630;2023-02-28T00:28:45;102462.22;;;-0.29;53.17
7524;BME280;3803;51.666;7.630;2023-02-28T00:29:06;102464.94;;;-0.27;52.80
7524;BME280;3803;51.666;7.630;2023-02-28T00:29:26;102460.69;;;-0.27;52.97
7524;BME280;3803;51.666;7.630;2023-02-28T00:29:47;102461.91;;;-0.23;52.92
7524;BME280;3803;51.666;7.630;2023-02-28T00:30:11;102454.34;;;-0.31;52.84
7524;BME280;3803;51.666;7.630;2023-02-28T00:30:32;102467.63;;;-0.26;52.77
7524;BME280;3803;51.666;7.630;2023-02-28T00:30:52;102451.66;;;-0.32;52.81
7524;BME280;3803;51.666;7.630;2023-02-28T00:31:13;102473.09;;;-0.23;52.76
7524;BME280;3803;51.666;7.630;2023-02-28T00:31:34;102468.56;;;-0.25;52.71
7524;BME280;3803;51.666;7.630;2023-02-28T00:31:54;102460.41;;;-0.30;52.74
7524;BME280;3803;51.666;7.630;2023-02-28T00:32:15;102461.63;;;-0.26;52.85
7524;BME280;3803;51.666;7.630;2023-02-28T00:32:36;102456.16;;;-0.30;52.91
7524;BME280;3803;51.666;7.630;2023-02-28T00:32:56;102453.47;;;-0.31;52.63
7524;BME280;3803;51.666;7.630;2023-02-28T00:33:20;102467.81;;;-0.24;52.78
7524;BME280;3803;51.666;7.630;2023-02-28T00:33:41;102464.34;;;-0.25;52.87
7524;BME280;3803;51.666;7.630;2023-02-28T00:34:02;102470.53;;;-0.23;52.70
7524;BME280;3803;51.666;7.630;2023-02-28T00:34:22;102459.78;;;-0.36;52.80
7524;BME280;3803;51.666;7.630;2023-02-28T00:34:43;102474.28;;;-0.28;52.84
7524;BME280;3803;51.666;7.630;2023-02-28T00:35:04;102455.41;;;-0.37;53.12
7524;BME280;3803;51.666;7.630;2023-02-28T00:35:25;102469.16;;;-0.28;52.86
7524;BME280;3803;51.666;7.630;2023-02-28T00:35:46;102456.78;;;-0.32;52.96
7524;BME280;3803;51.666;7.630;2023-02-28T00:36:09;102465.25;;;-0.33;52.99
7524;BME280;3803;51.666;7.630;2023-02-28T00:36:30;102455.84;;;-0.50;53.13
7524;BME280;3803;51.666;7.630;2023-02-28T00:36:51;102458.28;;;-0.43;53.13
7524;BME280;3803;51.666;7.630;2023-02-28T00:37:11;102471.88;;;-0.35;53.20
7524;BME280;3803;51.666;7.630;2023-02-28T00:37:32;102462.19;;;-0.38;52.82
7524;BME280;3803;51.666;7.630;2023-02-28T00:37:53;102464.31;;;-0.34;53.09
7524;BME280;3803;51.666;7.630;2023-02-28T00:38:14;102474.88;;;-0.31;52.93
7524;BME280;3803;51.666;7.630;2023-02-28T00:38:35;102481.41;;;-0.25;52.77
7524;BME280;3803;51.666;7.630;2023-02-28T00:38:56;102465.25;;;-0.33;52.69
7524;BME280;3803;51.666;7.630;2023-02-28T00:39:16;102475.22;;;-0.27;52.87
7524;BME280;3803;51.666;7.630;2023-02-28T00:39:38;102478.53;;;-0.28;52.82
7524;BME280;3803;51.666;7.630;2023-02-28T00:39:59;102480.19;;;-0.29;52.73
7524;BME280;3803;51.666;7.630;2023-02-28T00:40:21;102475.97;;;-0.28;52.77
7524;BME280;3803;51.666;7.630;2023-02-28T00:40:41;102478.22;;;-0.32;52.69
7524;BME280;3803;51.666;7.630;2023-02-28T00:41:02;102485.16;;;-0.31;52.71
7524;BME280;3803;51.666;7.630;2023-02-28T00:41:24;102477.16;;;-0.34;52.72
7524;BME280;3803;51.666;7.630;2023-02-28T00:41:45;102473.38;;;-0.37;52.90
7524;BME280;3803;51.666;7.630;2023-02-28T00:42:06;102472.47;;;-0.38;52.94
7524;BME280;3803;51.666;7.630;2023-02-28T00:42:28;102466.09;;;-0.41;52.61
7524;BME280;3803;51.666;7.630;2023-02-28T00:42:48;102460.97;;;-0.50;52.77
7524;BME280;3803;51.666;7.630;2023-02-28T00:43:09;102467.34;;;-0.47;53.00
7524;BME280;3803;51.666;7.630;2023-02-28T00:43:38;102454.94;;;-0.51;52.93
7524;BME280;3803;51.666;7.630;2023-02-28T00:43:59;102454.34;;;-0.48;53.02
7524;BME280;3803;51.666;7.630;2023-02-28T00:44:19;102454.19;;;-0.50;53.07
7524;BME280;3803;51.666;7.630;2023-02-28T00:44:42;102456.91;;;-0.48;52.97
7524;BME280;3803;51.666;7.630;2023-02-28T00:45:20;102478.19;;;-0.49;53.17
7524;BME280;3803;51.666;7.630;2023-02-28T00:45:41;102460.06;;;-0.60;53.59
7524;BME280;3803;51.666;7.630;2023-02-28T00:46:02;102466.13;;;-0.50;52.84
7524;BME280;3803;51.666;7.630;2023-02-28T00:46:24;102473.50;;;-0.45;53.37
7524;BME280;3803;51.666;7.630;2023-02-28T00:46:44;102478.06;;;-0.42;52.83
7524;BME280;3803;51.666;7.630;2023-02-28T00:47:05;102456.44;;;-0.53;52.81
7524;BME280;3803;51.666;7.630;2023-02-28T00:47:26;102464.59;;;-0.48;53.10
7524;BME280;3803;51.666;7.630;2023-02-28T00:47:47;102453.72;;;-0.54;53.00
7524;BME280;3803;51.666;7.630;2023-02-28T00:48:10;102454.19;;;-0.59;53.15
7524;BME280;3803;51.666;7.630;2023-02-28T00:48:33;102463.38;;;-0.52;53.06
7524;BME280;3803;51.666;7.630;2023-02-28T00:48:54;102462.94;;;-0.57;52.96
7524;BME280;3803;51.666;7.630;2023-02-28T00:49:14;102473.66;;;-0.61;53.33
7524;BME280;3803;51.666;7.630;2023-02-28T00:49:36;102455.50;;;-0.71;53.13
7524;BME280;3803;51.666;7.630;2023-02-28T00:49:56;102454.31;;;-0.66;53.42
7524;BME280;3803;51.666;7.630;2023-02-28T00:50:19;102470.63;;;-0.57;53.55
7524;BME280;3803;51.666;7.630;2023-02-28T00:50:40;102465.19;;;-0.60;53.13
7524;BME280;3803;51.666;7.630;2023-02-28T00:51:01;102477.13;;;-0.51;52.99
7524;BME280;3803;51.666;7.630;2023-02-28T00:51:22;102469.88;;;-0.55;53.24
7524;BME280;3803;51.666;7.630;2023-02-28T00:51:42;102463.69;;;-0.58;53.00
7524;BME280;3803;51.666;7.630;2023-02-28T00:52:03;102463.53;;;-0.59;52.95
7524;BME280;3803;51.666;7.630;2023-02-28T00:52:24;102458.25;;;-0.61;53.03
7524;BME280;3803;51.666;7.630;2023-02-28T00:52:45;102469.09;;;-0.54;52.95
7524;BME280;3803;51.666;7.630;2023-02-28T00:53:05;102475.16;;;-0.54;53.07
7524;BME280;3803;51.666;7.630;2023-02-28T00:53:26;102470.63;;;-0.57;52.51
7524;BME280;3803;51.666;7.630;2023-02-28T00:53:46;102456.88;;;-0.66;53.04
7524;BME280;3803;51.666;7.630;2023-02-28T00:54:07;102464.09;;;-0.62;53.20
7524;BME280;3803;51.666;7.630;2023-02-28T00:54:28;102466.69;;;-0.62;53.19
7524;BME280;3803;51.666;7.630;2023-02-28T00:54:48;102464.72;;;-0.64;53.45
7524;BME280;3803;51.666;7.630;2023-02-28T00:55:09;102462.16;;;-0.64;53.29
7524;BME280;3803;51.666;7.630;2023-02-28T00:55:30;102469.25;;;-0.62;52.94
7524;BME280;3803;51.666;7.630;2023-02-28T00:55:50;102459.44;;;-0.66;53.25
7524;BME280;3803;51.666;7.630;2023-02-28T00:56:11;102463.53;;;-0.59;53.18
7524;BME280;3803;51.666;7.630;2023-02-28T00:56:32;102466.41;;;-0.56;52.90
7524;BME280;3803;51.666;7.630;2023-02-28T00:56:52;102463.38;;;-0.61;52.93
7524;BME280;3803;51.666;7.630;2023-02-28T00:57:13;102461.88;;;-0.59;52.75
7524;BME280;3803;51.666;7.630;2023-02-28T00:57:33;102458.38;;;-0.59;53.32
7524;BME280;3803;51.666;7.630;2023-02-28T00:57:54;102462.75;;;-0.58;52.90
7524;BME280;3803;51.666;7.630;2023-02-28T00:58:15;102461.13;;;-0.58;52.93
7524;BME280;3803;51.666;7.630;2023-02-28T00:58:35;102458.84;;;-0.63;53.22
7524;BME280;3803;51.666;7.630;2023-02-28T00:58:56;102449.47;;;-0.63;52.92
7524;BME280;3803;51.666;7.630;2023-02-28T00:59:17;102473.19;;;-0.57;52.93
7524;BME280;3803;51.666;7.630;2023-02-28T00:59:38;102453.56;;;-0.65;52.67
7524;BME280;3803;51.666;7.630;2023-02-28T01:00:00;102466.53;;;-0.63;52.84
7524;BME280;3803;51.666;7.630;2023-02-28T01:00:21;102452.50;;;-0.67;52.80
7524;BME280;3803;51.666;7.630;2023-02-28T01:00:44;102460.31;;;-0.65;52.87
7524;BME280;3803;51.666;7.630;2023-02-28T01:01:09;102462.75;;;-0.67;52.94
7524;BME280;3803;51.666;7.630;2023-02-28T01:01:32;102454.16;;;-0.76;52.77
7524;BME280;3803;51.666;7.630;2023-02-28T01:01:53;102454.59;;;-0.72;53.37
7524;BME280;3803;51.666;7.630;2023-02-28T01:02:15;102459.88;;;-0.70;53.08
7524;BME280;3803;51.666;7.630;2023-02-28T01:02:36;102459.56;;;-0.73;53.27
7524;BME280;3803;51.666;7.630;2023-02-28T01:02:57;102458.06;;;-0.71;53.28
7524;BME280;3803;51.666;7.630;2023-02-28T01:03:19;102462.75;;;-0.67;53.21
7524;BME280;3803;51.666;7.630;2023-02-28T01:03:41;102472.25;;;-0.66;53.16
7524;BME280;3803;51.666;7.630;2023-02-28T01:04:02;102457.00;;;-0.73;53.38
7524;BME280;3803;51.666;7.630;2023-02-28T01:04:23;102452.31;;;-0.77;53.04
7524;BME280;3803;51.666;7.630;2023-02-28T01:04:43;102453.97;;;-0.78;53.73
7524;BME280;3803;51.666;7.630;2023-02-28T01:05:05;102452.31;;;-0.77;53.52
7524;BME280;3803;51.666;7.630;2023-02-28T01:05:25;102464.09;;;-0.71;53.35
7524;BME280;3803;51.666;7.630;2023-02-28T01:05:46;102459.72;;;-0.72;53.30
7524;BME280;3803;51.666;7.630;2023-02-28T01:06:07;102467.88;;;-0.67;53.20
7524;BME280;3803;51.666;7.630;2023-02-28T01:06:55;102466.09;;;-0.68;53.21
7524;BME280;3803;51.666;7.630;2023-02-28T01:07:16;102456.84;;;-0.75;53.56
7524;BME280;3803;51.666;7.630;2023-02-28T01:07:37;102459.09;;;-0.78;53.25
7524;BME280;3803;51.666;7.630;2023-02-28T01:07:58;102452.16;;;-0.79;53.08
7524;BME280;3803;51.666;7.630;2023-02-28T01:08:19;102453.06;;;-0.78;53.36
7524;BME280;3803;51.666;7.630;2023-02-28T01:08:39;102457.59;;;-0.76;53.27
7524;BME280;3803;51.666;7.630;2023-02-28T01:09:00;102448.81;;;-0.87;53.51
7524;BME280;3803;51.666;7.630;2023-02-28T01:09:21;102443.69;;;-0.87;53.38
7524;BME280;3803;51.666;7.630;2023-02-28T01:09:41;102443.69;;;-0.87;53.31
7524;BME280;3803;51.666;7.630;2023-02-28T01:10:02;102456.38;;;-0.79;53.33
7524;BME280;3803;51.666;7.630;2023-02-28T01:10:23;102461.75;;;-0.94;53.54
7524;BME280;3803;51.666;7.630;2023-02-28T01:10:43;102448.44;;;-1.07;53.57
7524;BME280;3803;51.666;7.630;2023-02-28T01:11:11;102463.13;;;-0.89;53.63
7524;BME280;3803;51.666;7.630;2023-02-28T01:11:34;102462.72;;;-0.85;53.52
7524;BME280;3803;51.666;7.630;2023-02-28T01:11:55;102451.91;;;-1.07;53.43
7524;BME280;3803;51.666;7.630;2023-02-28T01:12:16;102457.31;;;-1.13;53.70
7524;BME280;3803;51.666;7.630;2023-02-28T01:12:37;102464.88;;;-1.05;54.02
7524;BME280;3803;51.666;7.630;2023-02-28T01:12:57;102463.25;;;-0.96;53.78
7524;BME280;3803;51.666;7.630;2023-02-28T01:13:19;102442.44;;;-0.99;53.54
7524;BME280;3803;51.666;7.630;2023-02-28T01:13:40;102464.66;;;-0.91;53.42
7524;BME280;3803;51.666;7.630;2023-02-28T01:14:02;102459.53;;;-0.91;53.55
7524;BME280;3803;51.666;7.630;2023-02-28T01:14:22;102458.59;;;-0.91;53.79
7524;BME280;3803;51.666;7.630;2023-02-28T01:14:43;102448.63;;;-0.97;53.31
7524;BME280;3803;51.666;7.630;2023-02-28T01:15:04;102452.34;;;-1.11;53.52
7524;BME280;3803;51.666;7.630;2023-02-28T01:15:24;102466.22;;;-1.09;53.73
7524;BME280;3803;51.666;7.630;2023-02-28T01:15:49;102446.72;;;-1.24;53.83
7524;BME280;3803;51.666;7.630;2023-02-28T01:16:11;102445.06;;;-1.24;53.70
7524;BME280;3803;51.666;7.630;2023-02-28T01:16:32;102455.38;;;-1.06;53.96
7524;BME280;3803;51.666;7.630;2023-02-28T01:16:53;102447.47;;;-1.17;53.72
7524;BME280;3803;51.666;7.630;2023-02-28T01:17:19;102437.97;;;-1.27;54.10
7524;BME280;3803;51.666;7.630;2023-02-28T01:17:40;102453.16;;;-1.28;54.34
7524;BME280;3803;51.666;7.630;2023-02-28T01:18:01;102462.66;;;-1.27;54.05
7524;BME280;3803;51.666;7.630;2023-02-28T01:18:21;102464.34;;;-1.19;54.10
7524;BME280;3803;51.666;7.630;2023-02-28T01:18:42;102452.41;;;-1.27;54.16
7524;BME280;3803;51.666;7.630;2023-02-28T01:19:03;102466.97;;;-1.10;53.98
7524;BME280;3803;51.666;7.630;2023-02-28T01:19:24;102446.75;;;-1.16;53.73
7524;BME280;3803;51.666;7.630;2023-02-28T01:19:44;102454.75;;;-1.13;53.89
7524;BME280;3803;51.666;7.630;2023-02-28T01:20:05;102458.69;;;-1.07;53.79
7524;BME280;3803;51.666;7.630;2023-02-28T01:20:26;102448.28;;;-1.09;54.10
7524;BME280;3803;51.666;7.630;2023-02-28T01:20:47;102461.56;;;-1.04;53.64
7524;BME280;3803;51.666;7.630;2023-02-28T01:21:10;102464.44;;;-1.01;53.57
7524;BME280;3803;51.666;7.630;2023-02-28T01:21:32;102469.56;;;-1.01;53.54
7524;BME280;3803;51.666;7.630;2023-02-28T01:21:53;102463.53;;;-1.02;53.47
7524;BME280;3803;51.666;7.630;2023-02-28T01:22:13;102455.44;;;-1.22;53.92
7524;BME280;3803;51.666;7.630;2023-02-28T01:22:36;102472.03;;;-1.19;53.90
7524;BME280;3803;51.666;7.630;2023-02-28T01:22:57;102461.31;;;-1.32;53.87
7524;BME280;3803;51.666;7.630;2023-02-28T01:23:19;102461.16;;;-1.25;54.24
7524;BME280;3803;51.666;7.630;2023-02-28T01:23:41;102475.38;;;-1.20;53.78
7524;BME280;3803;51.666;7.630;2023-02-28T01:24:04;102463.72;;;-1.25;54.07
7524;BME280;3803;51.666;7.630;2023-02-28T01:24:25;102459.47;;;-1.33;54.20
7524;BME280;3803;51.666;7.630;2023-02-28T01:24:45;102454.22;;;-1.26;54.01
7524;BME280;3803;51.666;7.630;2023-02-28T01:25:07;102446.88;;;-1.23;53.82
7524;BME280;3803;51.666;7.630;2023-02-28T01:25:27;102451.78;;;-1.33;53.87
7524;BME280;3803;51.666;7.630;2023-02-28T01:25:49;102460.84;;;-1.28;53.95
7524;BME280;3803;51.666;7.630;2023-02-28T01:26:12;102466.16;;;-1.27;54.04
7524;BME280;3803;51.666;7.630;2023-02-28T01:26:35;102464.91;;;-1.30;54.49
7524;BME280;3803;51.666;7.630;2023-02-28T01:26:55;102448.63;;;-1.31;54.16
7524;BME280;3803;51.666;7.630;2023-02-28T01:27:16;102461.72;;;-1.36;54.62
7524;BME280;3803;51.666;7.630;2023-02-28T01:27:37;102467.91;;;-1.34;54.13
7524;BME280;3803;51.666;7.630;2023-02-28T01:28:01;102468.22;;;-1.31;54.26
7524;BME280;3803;51.666;7.630;2023-02-28T01:28:21;102453.16;;;-1.28;54.16
7524;BME280;3803;51.666;7.630;2023-02-28T01:28:42;102444.44;;;-1.30;53.85
7524;BME280;3803;51.666;7.630;2023-02-28T01:29:03;102458.19;;;-1.21;54.00
7524;BME280;3803;51.666;7.630;2023-02-28T01:29:23;102451.09;;;-1.23;54.02
7524;BME280;3803;51.666;7.630;2023-02-28T01:29:44;102452.41;;;-1.27;53.94
7524;BME280;3803;51.666;7.630;2023-02-28T01:30:08;102457.13;;;-1.23;54.01
7524;BME280;3803;51.666;7.630;2023-02-28T01:30:30;102447.22;;;-1.45;53.98
7524;BME280;3803;51.666;7.630;2023-02-28T01:30:51;102463.34;;;-1.37;54.21
7524;BME280;3803;51.666;7.630;2023-02-28T01:31:12;102460.13;;;-1.52;54.35
7524;BME280;3803;51.666;7.630;2023-02-28T01:31:32;102456.06;;;-1.50;54.82
7524;BME280;3803;51.666;7.630;2023-02-28T01:31:53;102459.25;;;-1.44;54.50
7524;BME280;3803;51.666;7.630;2023-02-28T01:32:19;102457.25;;;-1.55;54.73
7524;BME280;3803;51.666;7.630;2023-02-28T01:32:40;102452.44;;;-1.52;54.60
7524;BME280;3803;51.666;7.630;2023-02-28T01:33:00;102459.72;;;-1.48;54.52
7524;BME280;3803;51.666;7.630;2023-02-28T01:33:21;102453.09;;;-1.46;54.69
7524;BME280;3803;51.666;7.630;2023-02-28T01:33:42;102451.28;;;-1.47;54.34
7524;BME280;3803;51.666;7.630;2023-02-28T01:34:03;102451.78;;;-1.58;54.69
7524;BME280;3803;51.666;7.630;2023-02-28T01:34:23;102451.47;;;-1.61;54.89
7524;BME280;3803;51.666;7.630;2023-02-28T01:34:45;102454.22;;;-1.60;54.56
7524;BME280;3803;51.666;7.630;2023-02-28T01:35:06;102458.59;;;-1.59;54.70
7524;BME280;3803;51.666;7.630;2023-02-28T01:35:26;102445.41;;;-1.71;54.72
7524;BME280;3803;51.666;7.630;2023-02-28T01:35:48;102449.94;;;-1.68;54.94
7524;BME280;3803;51.666;7.630;2023-02-28T01:36:13;102453.69;;;-1.64;54.85
7524;BME280;3803;51.666;7.630;2023-02-28T01:36:40;102463.53;;;-1.60;54.75
7524;BME280;3803;51.666;7.630;2023-02-28T01:37:00;102462.69;;;-1.52;54.72
7524;BME280;3803;51.666;7.630;2023-02-28T01:37:21;102460.28;;;-1.50;54.57
7524;BME280;3803;51.666;7.630;2023-02-28T01:37:42;102452.44;;;-1.52;54.28
7524;BME280;3803;51.666;7.630;2023-02-28T01:38:02;102474.94;;;-1.41;54.43
7524;BME280;3803;51.666;7.630;2023-02-28T01:38:23;102456.97;;;-1.49;54.26
7524;BME280;3803;51.666;7.630;2023-02-28T01:38:44;102461.06;;;-1.43;54.35
7524;BME280;3803;51.666;7.630;2023-02-28T01:39:05;102471.66;;;-1.40;54.43
7524;BME280;3803;51.666;7.630;2023-02-28T01:39:26;102464.28;;;-1.36;54.47
7524;BME280;3803;51.666;7.630;2023-02-28T01:39:46;102466.09;;;-1.35;54.35
7524;BME280;3803;51.666;7.630;2023-02-28T01:40:07;102457.94;;;-1.40;54.06
7524;BME280;3803;51.666;7.630;2023-02-28T01:40:28;102449.78;;;-1.45;54.53
7524;BME280;3803;51.666;7.630;2023-02-28T01:40:50;102448.84;;;-1.45;54.12
7524;BME280;3803;51.666;7.630;2023-02-28T01:41:19;102451.41;;;-1.45;54.48
7524;BME280;3803;51.666;7.630;2023-02-28T01:41:42;102458.69;;;-1.41;53.85
7524;BME280;3803;51.666;7.630;2023-02-28T01:42:03;102461.25;;;-1.41;54.37
7524;BME280;3803;51.666;7.630;2023-02-28T01:42:24;102457.00;;;-1.41;54.10
7524;BME280;3803;51.666;7.630;2023-02-28T01:42:44;102452.34;;;-1.45;54.19
7524;BME280;3803;51.666;7.630;2023-02-28T01:43:31;102450.69;;;-1.44;54.13
7524;BME280;3803;51.666;7.630;2023-02-28T01:43:58;102438.88;;;-1.51;54.23
7524;BME280;3803;51.666;7.630;2023-02-28T01:45:22;102462.13;;;-1.41;54.25
7524;BME280;3803;51.666;7.630;2023-02-28T01:46:03;102475.69;;;-1.42;54.18
7524;BME280;3803;51.666;7.630;2023-02-28T01:46:25;102473.75;;;-1.44;54.18
7524;BME280;3803;51.666;7.630;2023-02-28T01:46:47;102464.31;;;-1.53;54.39
7524;BME280;3803;51.666;7.630;2023-02-28T01:47:08;102482.31;;;-1.44;54.20
7524;BME280;3803;51.666;7.630;2023-02-28T01:47:32;102461.19;;;-1.50;54.73
7524;BME280;3803;51.666;7.630;2023-02-28T01:48:04;102457.56;;;-1.52;54.48
7524;BME280;3803;51.666;7.630;2023-02-28T01:48:30;102459.38;;;-1.51;54.54
7524;BME280;3803;51.666;7.630;2023-02-28T01:49:00;102458.31;;;-1.53;54.36
7524;BME280;3803;51.666;7.630;2023-02-28T01:49:21;102467.13;;;-1.42;54.71
7524;BME280;3803;51.666;7.630;2023-02-28T01:49:42;102474.81;;;-1.42;54.42
7524;BME280;3803;51.666;7.630;2023-02-28T01:50:06;102469.69;;;-1.42;54.45
7524;BME280;3803;51.666;7.630;2023-02-28T01:50:30;102464.56;;;-1.42;54.46
7524;BME280;3803;51.666;7.630;2023-02-28T01:50:54;102453.66;;;-1.48;54.63
7524;BME280;3803;51.666;7.630;2023-02-28T01:51:24;102459.53;;;-1.49;54.38
7524;BME280;3803;51.666;7.630;2023-02-28T01:51:54;102457.72;;;-1.50;54.53
7524;BME280;3803;51.666;7.630;2023-02-28T01:52:17;102456.81;;;-1.51;54.47
7524;BME280;3803;51.666;7.630;2023-02-28T01:52:41;102455.75;;;-1.53;54.46
7524;BME280;3803;51.666;7.630;2023-02-28T01:53:07;102472.25;;;-1.42;54.46
7524;BME280;3803;51.666;7.630;2023-02-28T01:53:41;102455.75;;;-1.53;54.52
7524;BME280;3803;51.666;7.630;2023-02-28T01:54:08;102470.25;;;-1.45;54.49
7524;BME280;3803;51.666;7.630;2023-02-28T01:54:34;102472.06;;;-1.44;54.41
7524;BME280;3803;51.666;7.630;2023-02-28T01:54:56;102451.03;;;-1.57;54.43
7524;BME280;3803;51.666;7.630;2023-02-28T01:55:20;102469.03;;;-1.48;54.29
7524;BME280;3803;51.666;7.630;2023-02-28T01:55:47;102471.00;;;-1.46;54.25
7524;BME280;3803;51.666;7.630;2023-02-28T01:56:10;102460.88;;;-1.53;54.25
7524;BME280;3803;51.666;7.630;2023-02-28T01:56:34;102458.47;;;-1.51;54.41
7524;BME280;3803;51.666;7.630;2023-02-28T01:57:05;102452.53;;;-1.59;54.44
7524;BME280;3803;51.666;7.630;2023-02-28T01:57:32;102453.59;;;-1.57;54.38
7524;BME280;3803;51.666;7.630;2023-02-28T01:58:00;102471.41;;;-1.50;54.60
7524;BME280;3803;51.666;7.630;2023-02-28T01:58:22;102453.47;;;-1.59;54.42
7524;BME280;3803;51.666;7.630;2023-02-28T01:58:43;102471.28;;;-1.51;54.50
7524;BME280;3803;51.666;7.630;2023-02-28T01:59:04;102449.81;;;-1.61;54.47
7524;BME280;3803;51.666;7.630;2023-02-28T01:59:37;102460.56;;;-1.56;54.56
7524;BME280;3803;51.666;7.630;2023-02-28T02:00:10;102471.41;;;-1.50;54.57
7524;BME280;3803;51.666;7.630;2023-02-28T02:00:33;102463.13;;;-1.56;54.70
7524;BME280;3803;51.666;7.630;2023-02-28T02:00:54;102462.03;;;-1.58;54.42
7524;BME280;3803;51.666;7.630;2023-02-28T02:01:14;102463.69;;;-1.59;54.60